Orbital elements of ARIANE 1 DEB
| Launched | 21 February 1986 |
| Flight ended | – |
| Launch site | Europe's Spaceport, Kourou, French Guiana |
| Owner | France |
| NORAD ID | 17478 |
| Date fetched |
Epoch osculation |
Inc. [°] |
Ecc. | RA asc node [hr] |
Arg Peri. [°] |
Mean anom [°] |
Mean motion [rev/day] |
Abs. mag |
| Date fetched |
Epoch osculation |
Inc. [°] |
Ecc. | RA asc node [hr] |
Arg Peri. [°] |
Mean anom [°] |
Mean motion [rev/day] |
Abs. mag |
| 2026 May 01 17:56 | 2026 Apr 30 10:45:08 | 98.2871 | 0.00385 | 7.6543 | 185.0115 | 329.1459 | 14.30845 | – |
| 2026 Apr 30 17:56 | 2026 Apr 30 10:45:08 | 98.2871 | 0.00385 | 7.6543 | 185.0115 | 329.1459 | 14.30845 | – |
| 2026 Apr 29 17:57 | 2026 Apr 22 22:42:59 | 98.2870 | 0.00380 | 7.1773 | 207.5448 | 329.1459 | 14.30845 | – |
| 2026 Apr 28 17:56 | 2026 Apr 22 22:42:59 | 98.2870 | 0.00380 | 7.1773 | 207.5448 | 329.1459 | 14.30845 | – |
| 2026 Apr 27 17:58 | 2026 Apr 22 22:42:59 | 98.2870 | 0.00380 | 7.1773 | 207.5448 | 329.1459 | 14.30845 | – |
| 2026 Apr 26 17:58 | 2026 Apr 22 22:42:59 | 98.2870 | 0.00380 | 7.1773 | 207.5448 | 329.1459 | 14.30845 | – |
| 2026 Apr 25 17:58 | 2026 Apr 22 22:42:59 | 98.2870 | 0.00380 | 7.1773 | 207.5448 | 329.1459 | 14.30845 | – |
| 2026 Apr 24 17:59 | 2026 Apr 22 22:42:59 | 98.2870 | 0.00380 | 7.1773 | 207.5448 | 329.1459 | 14.30845 | – |
| 2026 Apr 23 17:57 | 2026 Apr 19 05:35:03 | 98.2872 | 0.00378 | 6.9412 | 218.7871 | 329.1459 | 14.30845 | – |
| 2026 Apr 22 17:57 | 2026 Apr 19 05:35:03 | 98.2872 | 0.00378 | 6.9412 | 218.7871 | 329.1459 | 14.30845 | – |
| 2026 Apr 21 17:57 | 2026 Apr 19 05:35:03 | 98.2872 | 0.00378 | 6.9412 | 218.7871 | 329.1459 | 14.30845 | – |
| 2026 Apr 20 17:57 | 2026 Apr 19 05:35:03 | 98.2872 | 0.00378 | 6.9412 | 218.7871 | 329.1459 | 14.30845 | – |
| 2026 Apr 19 17:58 | 2026 Apr 19 05:35:03 | 98.2872 | 0.00378 | 6.9412 | 218.7871 | 329.1459 | 14.30845 | – |
| 2026 Apr 18 17:56 | 2026 Apr 13 05:14:23 | 98.2873 | 0.00376 | 6.5588 | 237.1762 | 329.1459 | 14.30845 | – |
| 2026 Apr 16 17:57 | 2026 Apr 13 05:14:23 | 98.2873 | 0.00376 | 6.5588 | 237.1762 | 329.1459 | 14.30845 | – |
| 2026 Apr 14 17:57 | 2026 Apr 13 05:14:23 | 98.2873 | 0.00376 | 6.5588 | 237.1762 | 329.1459 | 14.30845 | – |
| 2026 Apr 13 17:57 | 2026 Apr 13 05:14:23 | 98.2873 | 0.00376 | 6.5588 | 237.1762 | 329.1459 | 14.30845 | – |
| 2026 Apr 12 17:57 | 2026 Apr 08 06:04:58 | 98.2868 | 0.00375 | 6.2431 | 252.4524 | 329.1459 | 14.30845 | – |
| 2026 Apr 11 17:57 | 2026 Apr 08 06:04:58 | 98.2868 | 0.00375 | 6.2431 | 252.4524 | 329.1459 | 14.30845 | – |
| 2026 Apr 10 17:58 | 2026 Apr 08 06:04:58 | 98.2868 | 0.00375 | 6.2431 | 252.4524 | 329.1459 | 14.30845 | – |
| 2026 Apr 09 18:01 | 2026 Apr 08 06:04:58 | 98.2868 | 0.00375 | 6.2431 | 252.4524 | 329.1459 | 14.30845 | – |
| 2026 Apr 08 17:57 | 2026 Apr 08 06:04:58 | 98.2868 | 0.00375 | 6.2431 | 252.4524 | 329.1459 | 14.30845 | – |
| 2026 Apr 07 17:57 | 2026 Apr 02 05:43:33 | 98.2865 | 0.00374 | 5.8608 | 270.9085 | 329.1459 | 14.30845 | – |
| 2026 Apr 06 17:57 | 2026 Apr 02 05:43:33 | 98.2865 | 0.00374 | 5.8608 | 270.9085 | 329.1459 | 14.30845 | – |
| 2026 Apr 05 17:56 | 2026 Apr 02 05:43:33 | 98.2865 | 0.00374 | 5.8608 | 270.9085 | 329.1459 | 14.30845 | – |
| 2026 Apr 04 17:57 | 2026 Apr 02 05:43:33 | 98.2865 | 0.00374 | 5.8608 | 270.9085 | 329.1459 | 14.30845 | – |